sensor_id;sensor_type;location;lat;lon;timestamp;pressure;altitude;pressure_sealevel;temperature;humidity
38289;BME280;24092;53.370;-6.588;2023-04-24T00:02:10;100197.38;;;5.61;100.00
38289;BME280;24092;53.370;-6.588;2023-04-24T00:04:37;100197.53;;;5.15;100.00
38289;BME280;24092;53.370;-6.588;2023-04-24T00:07:04;100201.34;;;6.30;100.00
38289;BME280;24092;53.370;-6.588;2023-04-24T00:09:31;100202.64;;;6.53;100.00
38289;BME280;24092;53.370;-6.588;2023-04-24T00:11:58;100202.00;;;5.05;100.00
38289;BME280;24092;53.370;-6.588;2023-04-24T00:14:25;100199.12;;;5.29;100.00
38289;BME280;24092;53.370;-6.588;2023-04-24T00:16:52;100199.88;;;6.55;100.00
38289;BME280;24092;53.370;-6.588;2023-04-24T00:19:19;100199.17;;;5.03;100.00
38289;BME280;24092;53.370;-6.588;2023-04-24T00:21:46;100194.59;;;5.40;100.00
38289;BME280;24092;53.370;-6.588;2023-04-24T00:24:13;100196.59;;;4.63;100.00
38289;BME280;24092;53.370;-6.588;2023-04-24T00:26:40;100193.00;;;5.58;100.00
38289;BME280;24092;53.370;-6.588;2023-04-24T00:29:07;100195.20;;;5.70;100.00
38289;BME280;24092;53.370;-6.588;2023-04-24T00:31:34;100192.78;;;4.62;100.00
38289;BME280;24092;53.370;-6.588;2023-04-24T00:34:01;100191.91;;;5.81;100.00
38289;BME280;24092;53.370;-6.588;2023-04-24T00:36:28;100189.80;;;5.80;100.00
38289;BME280;24092;53.370;-6.588;2023-04-24T00:38:55;100189.84;;;4.44;100.00
38289;BME280;24092;53.370;-6.588;2023-04-24T00:41:23;100182.70;;;4.71;100.00
38289;BME280;24092;53.370;-6.588;2023-04-24T00:43:52;100185.95;;;4.38;100.00
38289;BME280;24092;53.370;-6.588;2023-04-24T00:46:19;100180.72;;;4.06;100.00
38289;BME280;24092;53.370;-6.588;2023-04-24T00:48:47;100174.26;;;5.27;100.00
38289;BME280;24092;53.370;-6.588;2023-04-24T00:51:14;100175.24;;;4.34;100.00
38289;BME280;24092;53.370;-6.588;2023-04-24T00:53:41;100175.21;;;5.78;100.00
38289;BME280;24092;53.370;-6.588;2023-04-24T00:56:08;100178.84;;;3.85;100.00
38289;BME280;24092;53.370;-6.588;2023-04-24T00:58:35;100178.47;;;4.97;100.00
38289;BME280;24092;53.370;-6.588;2023-04-24T01:01:03;100176.77;;;4.12;100.00
38289;BME280;24092;53.370;-6.588;2023-04-24T01:03:31;100179.00;;;4.76;100.00
38289;BME280;24092;53.370;-6.588;2023-04-24T01:05:58;100177.90;;;5.52;100.00
38289;BME280;24092;53.370;-6.588;2023-04-24T01:08:26;100180.01;;;4.05;100.00
38289;BME280;24092;53.370;-6.588;2023-04-24T01:10:55;100180.77;;;3.31;100.00
38289;BME280;24092;53.370;-6.588;2023-04-24T01:13:23;100186.24;;;4.04;100.00
38289;BME280;24092;53.370;-6.588;2023-04-24T01:15:51;100185.64;;;4.25;100.00
38289;BME280;24092;53.370;-6.588;2023-04-24T01:18:18;100182.57;;;2.93;100.00
38289;BME280;24092;53.370;-6.588;2023-04-24T01:20:46;100180.79;;;2.04;100.00
38289;BME280;24092;53.370;-6.588;2023-04-24T01:23:13;100188.21;;;3.25;100.00
38289;BME280;24092;53.370;-6.588;2023-04-24T01:25:40;100194.83;;;3.90;100.00
38289;BME280;24092;53.370;-6.588;2023-04-24T01:28:07;100194.29;;;4.23;100.00
38289;BME280;24092;53.370;-6.588;2023-04-24T01:30:34;100201.71;;;4.23;100.00
38289;BME280;24092;53.370;-6.588;2023-04-24T01:33:01;100196.79;;;5.22;100.00
38289;BME280;24092;53.370;-6.588;2023-04-24T01:35:29;100197.47;;;5.37;100.00
38289;BME280;24092;53.370;-6.588;2023-04-24T01:37:56;100200.80;;;4.80;100.00
38289;BME280;24092;53.370;-6.588;2023-04-24T01:40:23;100195.92;;;5.08;100.00
38289;BME280;24092;53.370;-6.588;2023-04-24T01:42:50;100198.15;;;5.74;100.00
38289;BME280;24092;53.370;-6.588;2023-04-24T01:45:18;100199.48;;;5.94;100.00
38289;BME280;24092;53.370;-6.588;2023-04-24T01:47:46;100201.50;;;6.06;100.00
38289;BME280;24092;53.370;-6.588;2023-04-24T01:50:13;100201.25;;;5.15;100.00
38289;BME280;24092;53.370;-6.588;2023-04-24T01:52:40;100204.01;;;5.67;100.00
38289;BME280;24092;53.370;-6.588;2023-04-24T01:55:08;100202.91;;;5.74;100.00
38289;BME280;24092;53.370;-6.588;2023-04-24T01:57:35;100200.27;;;7.26;100.00
38289;BME280;24092;53.370;-6.588;2023-04-24T02:00:04;100203.84;;;7.95;100.00
38289;BME280;24092;53.370;-6.588;2023-04-24T02:02:31;100212.47;;;9.36;100.00
38289;BME280;24092;53.370;-6.588;2023-04-24T02:04:59;100215.12;;;9.03;100.00
38289;BME280;24092;53.370;-6.588;2023-04-24T02:07:26;100218.34;;;8.95;100.00
38289;BME280;24092;53.370;-6.588;2023-04-24T02:09:53;100218.25;;;8.28;100.00
38289;BME280;24092;53.370;-6.588;2023-04-24T02:12:20;100221.23;;;7.89;100.00
38289;BME280;24092;53.370;-6.588;2023-04-24T02:14:47;100222.83;;;7.11;100.00
38289;BME280;24092;53.370;-6.588;2023-04-24T02:17:14;100224.36;;;6.82;100.00
38289;BME280;24092;53.370;-6.588;2023-04-24T02:19:41;100224.43;;;7.16;100.00
38289;BME280;24092;53.370;-6.588;2023-04-24T02:22:08;100225.56;;;7.34;100.00
38289;BME280;24092;53.370;-6.588;2023-04-24T02:24:35;100227.62;;;7.16;100.00
38289;BME280;24092;53.370;-6.588;2023-04-24T02:27:02;100227.07;;;7.11;100.00
38289;BME280;24092;53.370;-6.588;2023-04-24T02:29:29;100229.38;;;7.08;100.00
38289;BME280;24092;53.370;-6.588;2023-04-24T02:31:56;100232.48;;;6.94;100.00
38289;BME280;24092;53.370;-6.588;2023-04-24T02:34:23;100228.15;;;7.52;100.00
38289;BME280;24092;53.370;-6.588;2023-04-24T02:36:50;100233.01;;;6.86;100.00
38289;BME280;24092;53.370;-6.588;2023-04-24T02:39:18;100236.19;;;6.46;100.00
38289;BME280;24092;53.370;-6.588;2023-04-24T02:41:45;100236.50;;;7.99;100.00
38289;BME280;24092;53.370;-6.588;2023-04-24T02:44:12;100233.91;;;8.17;100.00
38289;BME280;24092;53.370;-6.588;2023-04-24T02:46:39;100234.64;;;8.69;100.00
38289;BME280;24092;53.370;-6.588;2023-04-24T02:49:06;100233.64;;;8.39;100.00
38289;BME280;24092;53.370;-6.588;2023-04-24T02:51:33;100228.84;;;8.94;100.00
38289;BME280;24092;53.370;-6.588;2023-04-24T02:54:00;100229.24;;;8.98;100.00
38289;BME280;24092;53.370;-6.588;2023-04-24T02:56:27;100229.42;;;8.48;100.00
38289;BME280;24092;53.370;-6.588;2023-04-24T02:58:54;100229.33;;;7.69;100.00
38289;BME280;24092;53.370;-6.588;2023-04-24T03:01:21;100231.89;;;6.76;100.00
38289;BME280;24092;53.370;-6.588;2023-04-24T03:03:48;100231.57;;;7.09;100.00
38289;BME280;24092;53.370;-6.588;2023-04-24T03:06:15;100230.25;;;6.70;100.00
38289;BME280;24092;53.370;-6.588;2023-04-24T03:08:42;100229.59;;;7.13;100.00
38289;BME280;24092;53.370;-6.588;2023-04-24T03:11:10;100234.94;;;6.71;100.00
38289;BME280;24092;53.370;-6.588;2023-04-24T03:13:36;100236.66;;;7.09;100.00
38289;BME280;24092;53.370;-6.588;2023-04-24T03:16:04;100237.78;;;5.32;100.00
38289;BME280;24092;53.370;-6.588;2023-04-24T03:18:31;100237.21;;;4.36;100.00
38289;BME280;24092;53.370;-6.588;2023-04-24T03:20:58;100235.20;;;6.16;100.00
38289;BME280;24092;53.370;-6.588;2023-04-24T03:23:25;100231.68;;;6.87;100.00
38289;BME280;24092;53.370;-6.588;2023-04-24T03:25:52;100232.78;;;6.76;100.00
38289;BME280;24092;53.370;-6.588;2023-04-24T03:28:19;100231.31;;;6.68;100.00
38289;BME280;24092;53.370;-6.588;2023-04-24T03:30:46;100230.73;;;6.38;100.00
38289;BME280;24092;53.370;-6.588;2023-04-24T03:33:13;100231.01;;;6.06;100.00
38289;BME280;24092;53.370;-6.588;2023-04-24T03:35:40;100230.00;;;5.53;100.00
38289;BME280;24092;53.370;-6.588;2023-04-24T03:38:07;100228.21;;;5.80;100.00
38289;BME280;24092;53.370;-6.588;2023-04-24T03:40:35;100228.74;;;6.41;100.00
38289;BME280;24092;53.370;-6.588;2023-04-24T03:43:02;100226.51;;;6.44;100.00
38289;BME280;24092;53.370;-6.588;2023-04-24T03:45:29;100229.40;;;4.59;100.00
38289;BME280;24092;53.370;-6.588;2023-04-24T03:47:56;100235.04;;;4.80;100.00
38289;BME280;24092;53.370;-6.588;2023-04-24T03:50:23;100240.41;;;4.21;100.00
38289;BME280;24092;53.370;-6.588;2023-04-24T03:52:50;100236.14;;;2.84;100.00
38289;BME280;24092;53.370;-6.588;2023-04-24T03:55:18;100240.10;;;4.81;100.00
38289;BME280;24092;53.370;-6.588;2023-04-24T03:57:45;100234.13;;;4.03;100.00
38289;BME280;24092;53.370;-6.588;2023-04-24T04:00:13;100235.56;;;3.00;100.00
38289;BME280;24092;53.370;-6.588;2023-04-24T04:02:40;100236.36;;;3.27;100.00
38289;BME280;24092;53.370;-6.588;2023-04-24T04:05:07;100234.64;;;3.93;100.00
38289;BME280;24092;53.370;-6.588;2023-04-24T04:07:34;100234.02;;;3.93;100.00
38289;BME280;24092;53.370;-6.588;2023-04-24T04:10:01;100234.36;;;5.59;100.00
38289;BME280;24092;53.370;-6.588;2023-04-24T04:12:28;100236.59;;;4.99;100.00
38289;BME280;24092;53.370;-6.588;2023-04-24T04:14:55;100238.81;;;4.68;100.00
38289;BME280;24092;53.370;-6.588;2023-04-24T04:17:22;100245.27;;;3.98;100.00
38289;BME280;24092;53.370;-6.588;2023-04-24T04:19:49;100239.96;;;2.62;100.00
38289;BME280;24092;53.370;-6.588;2023-04-24T04:22:16;100241.89;;;2.21;100.00
38289;BME280;24092;53.370;-6.588;2023-04-24T04:24:43;100242.92;;;3.71;100.00
38289;BME280;24092;53.370;-6.588;2023-04-24T04:27:10;100243.63;;;3.36;100.00
38289;BME280;24092;53.370;-6.588;2023-04-24T04:29:37;100247.91;;;2.01;100.00
38289;BME280;24092;53.370;-6.588;2023-04-24T04:32:04;100242.62;;;2.63;100.00
38289;BME280;24092;53.370;-6.588;2023-04-24T04:34:32;100244.93;;;1.31;100.00
38289;BME280;24092;53.370;-6.588;2023-04-24T04:36:59;100248.45;;;1.24;100.00
38289;BME280;24092;53.370;-6.588;2023-04-24T04:39:26;100250.18;;;0.43;100.00
38289;BME280;24092;53.370;-6.588;2023-04-24T04:41:52;100250.81;;;2.76;100.00
38289;BME280;24092;53.370;-6.588;2023-04-24T04:44:20;100254.08;;;0.38;100.00
38289;BME280;24092;53.370;-6.588;2023-04-24T04:46:47;100254.94;;;2.12;100.00
38289;BME280;24092;53.370;-6.588;2023-04-24T04:49:14;100252.97;;;2.25;100.00
38289;BME280;24092;53.370;-6.588;2023-04-24T04:51:41;100256.40;;;2.33;100.00
38289;BME280;24092;53.370;-6.588;2023-04-24T04:54:08;100261.09;;;1.63;100.00
38289;BME280;24092;53.370;-6.588;2023-04-24T04:56:35;100267.49;;;1.61;100.00
38289;BME280;24092;53.370;-6.588;2023-04-24T04:59:02;100268.72;;;2.23;100.00
38289;BME280;24092;53.370;-6.588;2023-04-24T05:01:29;100273.77;;;0.75;100.00
38289;BME280;24092;53.370;-6.588;2023-04-24T05:03:56;100281.84;;;1.16;100.00
38289;BME280;24092;53.370;-6.588;2023-04-24T05:06:23;100278.60;;;2.84;100.00
38289;BME280;24092;53.370;-6.588;2023-04-24T05:08:50;100282.89;;;1.23;100.00
38289;BME280;24092;53.370;-6.588;2023-04-24T05:11:18;100284.50;;;1.96;100.00
38289;BME280;24092;53.370;-6.588;2023-04-24T05:13:44;100286.33;;;2.40;100.00
38289;BME280;24092;53.370;-6.588;2023-04-24T05:16:11;100290.37;;;1.77;100.00
38289;BME280;24092;53.370;-6.588;2023-04-24T05:18:39;100292.37;;;1.99;100.00
38289;BME280;24092;53.370;-6.588;2023-04-24T05:21:06;100299.99;;;0.60;100.00
38289;BME280;24092;53.370;-6.588;2023-04-24T05:23:33;100309.04;;;0.58;100.00
38289;BME280;24092;53.370;-6.588;2023-04-24T05:26:00;100309.11;;;0.54;100.00
38289;BME280;24092;53.370;-6.588;2023-04-24T05:28:27;100312.82;;;0.29;100.00
38289;BME280;24092;53.370;-6.588;2023-04-24T05:30:54;100317.97;;;0.06;100.00
38289;BME280;24092;53.370;-6.588;2023-04-24T05:33:21;100322.18;;;-0.39;100.00
38289;BME280;24092;53.370;-6.588;2023-04-24T05:35:48;100324.99;;;-0.09;100.00
38289;BME280;24092;53.370;-6.588;2023-04-24T05:38:15;100327.26;;;-1.25;100.00
38289;BME280;24092;53.370;-6.588;2023-04-24T05:40:42;100341.13;;;-1.52;100.00
38289;BME280;24092;53.370;-6.588;2023-04-24T05:43:09;100344.51;;;-1.24;100.00
38289;BME280;24092;53.370;-6.588;2023-04-24T05:45:36;100352.36;;;-1.00;100.00
38289;BME280;24092;53.370;-6.588;2023-04-24T05:48:04;100357.31;;;-1.80;100.00
38289;BME280;24092;53.370;-6.588;2023-04-24T05:50:31;100363.66;;;-1.36;100.00
38289;BME280;24092;53.370;-6.588;2023-04-24T05:52:58;100368.24;;;-2.13;100.00
38289;BME280;24092;53.370;-6.588;2023-04-24T05:55:25;100381.90;;;-1.59;100.00
38289;BME280;24092;53.370;-6.588;2023-04-24T05:57:53;100391.15;;;-2.34;100.00
38289;BME280;24092;53.370;-6.588;2023-04-24T06:00:20;100396.01;;;-1.98;100.00
38289;BME280;24092;53.370;-6.588;2023-04-24T06:02:47;100397.67;;;-1.93;100.00
38289;BME280;24092;53.370;-6.588;2023-04-24T06:05:14;100405.95;;;-1.64;100.00
38289;BME280;24092;53.370;-6.588;2023-04-24T06:07:41;100409.56;;;-1.52;100.00
38289;BME280;24092;53.370;-6.588;2023-04-24T06:10:09;100411.58;;;-1.05;100.00
38289;BME280;24092;53.370;-6.588;2023-04-24T06:12:36;100415.71;;;-1.26;100.00
38289;BME280;24092;53.370;-6.588;2023-04-24T06:15:04;100421.13;;;-1.13;100.00
38289;BME280;24092;53.370;-6.588;2023-04-24T06:17:31;100420.25;;;-0.79;100.00
38289;BME280;24092;53.370;-6.588;2023-04-24T06:19:59;100423.75;;;-1.31;100.00
38289;BME280;24092;53.370;-6.588;2023-04-24T06:22:26;100431.06;;;-0.71;100.00
38289;BME280;24092;53.370;-6.588;2023-04-24T06:24:53;100437.17;;;-0.74;100.00
38289;BME280;24092;53.370;-6.588;2023-04-24T06:27:20;100439.77;;;-1.85;100.00
38289;BME280;24092;53.370;-6.588;2023-04-24T06:29:47;100440.82;;;-1.33;100.00
38289;BME280;24092;53.370;-6.588;2023-04-24T06:32:14;100445.58;;;-2.06;100.00
38289;BME280;24092;53.370;-6.588;2023-04-24T06:34:41;100456.40;;;-2.41;100.00
38289;BME280;24092;53.370;-6.588;2023-04-24T06:37:08;100459.57;;;-2.82;100.00
38289;BME280;24092;53.370;-6.588;2023-04-24T06:39:35;100466.03;;;-1.78;100.00
38289;BME280;24092;53.370;-6.588;2023-04-24T06:42:02;100466.94;;;-2.00;100.00
38289;BME280;24092;53.370;-6.588;2023-04-24T06:44:30;100468.44;;;-1.33;100.00
38289;BME280;24092;53.370;-6.588;2023-04-24T06:46:57;100474.49;;;-2.37;100.00
38289;BME280;24092;53.370;-6.588;2023-04-24T06:49:24;100478.19;;;-1.96;100.00
38289;BME280;24092;53.370;-6.588;2023-04-24T06:51:51;100481.42;;;-2.11;100.00
38289;BME280;24092;53.370;-6.588;2023-04-24T06:54:18;100480.35;;;-2.59;100.00
38289;BME280;24092;53.370;-6.588;2023-04-24T06:56:45;100480.61;;;-1.44;100.00
38289;BME280;24092;53.370;-6.588;2023-04-24T06:59:12;100484.25;;;-2.64;100.00
38289;BME280;24092;53.370;-6.588;2023-04-24T07:01:39;100488.77;;;-1.60;100.00
38289;BME280;24092;53.370;-6.588;2023-04-24T07:04:06;100492.36;;;-2.05;100.00
38289;BME280;24092;53.370;-6.588;2023-04-24T07:06:34;100493.28;;;-2.44;100.00
38289;BME280;24092;53.370;-6.588;2023-04-24T07:09:01;100500.80;;;-2.35;100.00
38289;BME280;24092;53.370;-6.588;2023-04-24T07:11:28;100503.03;;;-1.52;100.00
38289;BME280;24092;53.370;-6.588;2023-04-24T07:13:56;100505.69;;;-2.40;100.00
38289;BME280;24092;53.370;-6.588;2023-04-24T07:16:22;100509.19;;;-2.69;100.00
38289;BME280;24092;53.370;-6.588;2023-04-24T07:18:50;100509.89;;;-1.59;100.00
38289;BME280;24092;53.370;-6.588;2023-04-24T07:21:17;100514.05;;;-1.90;100.00
38289;BME280;24092;53.370;-6.588;2023-04-24T07:23:44;100518.51;;;-2.06;100.00
38289;BME280;24092;53.370;-6.588;2023-04-24T07:26:11;100523.04;;;-2.27;100.00
38289;BME280;24092;53.370;-6.588;2023-04-24T07:28:38;100531.78;;;-1.80;100.00
38289;BME280;24092;53.370;-6.588;2023-04-24T07:31:05;100536.12;;;-1.65;100.00
38289;BME280;24092;53.370;-6.588;2023-04-24T07:33:32;100535.24;;;-1.94;100.00
38289;BME280;24092;53.370;-6.588;2023-04-24T07:35:59;100536.70;;;-2.01;100.00
38289;BME280;24092;53.370;-6.588;2023-04-24T07:38:27;100536.33;;;-1.55;100.00
38289;BME280;24092;53.370;-6.588;2023-04-24T07:40:55;100543.51;;;-2.08;100.00
38289;BME280;24092;53.370;-6.588;2023-04-24T07:43:23;100543.06;;;-1.66;100.00
38289;BME280;24092;53.370;-6.588;2023-04-24T07:45:50;100546.97;;;-1.83;100.00
38289;BME280;24092;53.370;-6.588;2023-04-24T07:48:17;100547.36;;;-2.52;100.00
38289;BME280;24092;53.370;-6.588;2023-04-24T07:50:44;100550.60;;;-1.03;100.00
38289;BME280;24092;53.370;-6.588;2023-04-24T07:53:11;100553.16;;;-2.38;100.00
38289;BME280;24092;53.370;-6.588;2023-04-24T07:55:38;100558.16;;;-2.38;100.00
38289;BME280;24092;53.370;-6.588;2023-04-24T07:58:05;100564.05;;;-2.06;100.00
38289;BME280;24092;53.370;-6.588;2023-04-24T08:00:33;100565.39;;;-2.43;100.00
38289;BME280;24092;53.370;-6.588;2023-04-24T08:03:00;100569.04;;;-2.28;100.00
38289;BME280;24092;53.370;-6.588;2023-04-24T08:05:27;100571.54;;;-2.31;100.00
38289;BME280;24092;53.370;-6.588;2023-04-24T08:07:54;100574.31;;;-2.23;100.00
38289;BME280;24092;53.370;-6.588;2023-04-24T08:10:22;100575.15;;;-2.22;100.00
38289;BME280;24092;53.370;-6.588;2023-04-24T08:12:49;100579.85;;;-1.93;100.00
38289;BME280;24092;53.370;-6.588;2023-04-24T08:15:17;100577.29;;;-2.25;100.00
38289;BME280;24092;53.370;-6.588;2023-04-24T08:17:44;100579.41;;;-1.37;100.00
38289;BME280;24092;53.370;-6.588;2023-04-24T08:20:12;100579.98;;;-1.88;100.00
38289;BME280;24092;53.370;-6.588;2023-04-24T08:22:39;100582.81;;;-2.30;100.00
38289;BME280;24092;53.370;-6.588;2023-04-24T08:25:07;100590.01;;;-2.08;100.00
38289;BME280;24092;53.370;-6.588;2023-04-24T08:27:34;100596.12;;;-1.88;100.00
38289;BME280;24092;53.370;-6.588;2023-04-24T08:30:01;100593.60;;;-1.57;100.00
38289;BME280;24092;53.370;-6.588;2023-04-24T08:32:28;100588.29;;;-2.03;100.00
38289;BME280;24092;53.370;-6.588;2023-04-24T08:34:56;100588.33;;;-2.05;100.00
38289;BME280;24092;53.370;-6.588;2023-04-24T08:37:24;100588.34;;;-1.82;100.00
38289;BME280;24092;53.370;-6.588;2023-04-24T08:39:52;100592.71;;;-2.06;100.00
38289;BME280;24092;53.370;-6.588;2023-04-24T08:42:20;100591.27;;;-1.63;100.00
38289;BME280;24092;53.370;-6.588;2023-04-24T08:44:49;100594.28;;;-0.99;100.00
38289;BME280;24092;53.370;-6.588;2023-04-24T08:47:16;100597.58;;;-1.45;100.00
38289;BME280;24092;53.370;-6.588;2023-04-24T08:49:44;100594.27;;;-1.37;100.00
38289;BME280;24092;53.370;-6.588;2023-04-24T08:52:15;100604.21;;;-1.63;100.00
38289;BME280;24092;53.370;-6.588;2023-04-24T08:54:43;100607.47;;;-1.19;100.00
38289;BME280;24092;53.370;-6.588;2023-04-24T08:57:11;100607.50;;;-0.51;100.00
38289;BME280;24092;53.370;-6.588;2023-04-24T08:59:42;100609.12;;;-0.27;100.00
38289;BME280;24092;53.370;-6.588;2023-04-24T09:02:11;100610.06;;;0.27;100.00
38289;BME280;24092;53.370;-6.588;2023-04-24T09:04:38;100616.43;;;-1.13;100.00
38289;BME280;24092;53.370;-6.588;2023-04-24T09:07:06;100618.51;;;-0.75;100.00
38289;BME280;24092;53.370;-6.588;2023-04-24T09:09:35;100624.74;;;-0.60;100.00
38289;BME280;24092;53.370;-6.588;2023-04-24T09:12:03;100627.36;;;-1.19;100.00
38289;BME280;24092;53.370;-6.588;2023-04-24T09:14:31;100627.20;;;-0.25;100.00
38289;BME280;24092;53.370;-6.588;2023-04-24T09:16:59;100633.94;;;-1.58;100.00
38289;BME280;24092;53.370;-6.588;2023-04-24T09:19:26;100633.28;;;-1.06;100.00
38289;BME280;24092;53.370;-6.588;2023-04-24T09:21:53;100636.78;;;-1.73;100.00
38289;BME280;24092;53.370;-6.588;2023-04-24T09:24:21;100641.15;;;-1.07;100.00
38289;BME280;24092;53.370;-6.588;2023-04-24T09:26:49;100644.55;;;-0.26;100.00
38289;BME280;24092;53.370;-6.588;2023-04-24T09:29:22;100645.46;;;-0.69;100.00
38289;BME280;24092;53.370;-6.588;2023-04-24T09:31:50;100644.85;;;-0.21;100.00
38289;BME280;24092;53.370;-6.588;2023-04-24T09:34:21;100655.59;;;-0.60;100.00
38289;BME280;24092;53.370;-6.588;2023-04-24T09:36:48;100660.38;;;-1.05;100.00
38289;BME280;24092;53.370;-6.588;2023-04-24T09:39:16;100663.28;;;-1.25;100.00
38289;BME280;24092;53.370;-6.588;2023-04-24T09:41:45;100666.31;;;-0.92;100.00
38289;BME280;24092;53.370;-6.588;2023-04-24T09:44:13;100663.04;;;-0.74;100.00
38289;BME280;24092;53.370;-6.588;2023-04-24T09:46:41;100661.27;;;-0.80;100.00
38289;BME280;24092;53.370;-6.588;2023-04-24T09:49:11;100663.60;;;-1.36;100.00
38289;BME280;24092;53.370;-6.588;2023-04-24T09:51:39;100671.69;;;-1.41;100.00
38289;BME280;24092;53.370;-6.588;2023-04-24T09:54:14;100669.37;;;-0.79;100.00
38289;BME280;24092;53.370;-6.588;2023-04-24T09:56:43;100665.02;;;-0.31;100.00
38289;BME280;24092;53.370;-6.588;2023-04-24T09:59:10;100664.68;;;0.45;100.00
38289;BME280;24092;53.370;-6.588;2023-04-24T10:01:38;100667.96;;;1.34;100.00
38289;BME280;24092;53.370;-6.588;2023-04-24T10:04:05;100666.81;;;-0.63;100.00
38289;BME280;24092;53.370;-6.588;2023-04-24T10:06:34;100673.53;;;-0.56;100.00
38289;BME280;24092;53.370;-6.588;2023-04-24T10:09:02;100683.22;;;-1.45;100.00
38289;BME280;24092;53.370;-6.588;2023-04-24T10:11:30;100686.45;;;-0.74;100.00
38289;BME280;24092;53.370;-6.588;2023-04-24T10:13:57;100681.92;;;-0.54;100.00
38289;BME280;24092;53.370;-6.588;2023-04-24T10:16:25;100679.17;;;1.02;100.00
38289;BME280;24092;53.370;-6.588;2023-04-24T10:18:53;100675.10;;;0.62;100.00
38289;BME280;24092;53.370;-6.588;2023-04-24T10:21:21;100682.04;;;-0.18;100.00
38289;BME280;24092;53.370;-6.588;2023-04-24T10:23:49;100683.88;;;-0.71;100.00
38289;BME280;24092;53.370;-6.588;2023-04-24T10:26:18;100683.58;;;-1.41;100.00
38289;BME280;24092;53.370;-6.588;2023-04-24T10:28:47;100681.66;;;-0.07;100.00
38289;BME280;24092;53.370;-6.588;2023-04-24T10:31:14;100682.13;;;-0.11;100.00
38289;BME280;24092;53.370;-6.588;2023-04-24T10:33:42;100688.20;;;-0.93;100.00
38289;BME280;24092;53.370;-6.588;2023-04-24T10:36:11;100682.37;;;0.36;100.00
38289;BME280;24092;53.370;-6.588;2023-04-24T10:38:41;100694.99;;;-0.95;100.00
38289;BME280;24092;53.370;-6.588;2023-04-24T10:41:11;100684.73;;;0.54;100.00
38289;BME280;24092;53.370;-6.588;2023-04-24T10:43:40;100694.74;;;-0.48;100.00
38289;BME280;24092;53.370;-6.588;2023-04-24T10:46:07;100706.34;;;-0.01;100.00
38289;BME280;24092;53.370;-6.588;2023-04-24T10:48:34;100707.45;;;-0.05;100.00
38289;BME280;24092;53.370;-6.588;2023-04-24T10:51:02;100710.90;;;0.39;100.00
38289;BME280;24092;53.370;-6.588;2023-04-24T10:53:30;100714.92;;;0.75;100.00
38289;BME280;24092;53.370;-6.588;2023-04-24T10:56:02;100718.28;;;-0.12;100.00
38289;BME280;24092;53.370;-6.588;2023-04-24T10:58:39;100719.87;;;-0.73;100.00
38289;BME280;24092;53.370;-6.588;2023-04-24T11:01:07;100714.74;;;0.44;100.00
38289;BME280;24092;53.370;-6.588;2023-04-24T11:03:35;100719.31;;;0.43;100.00
38289;BME280;24092;53.370;-6.588;2023-04-24T11:06:04;100720.40;;;0.46;100.00
38289;BME280;24092;53.370;-6.588;2023-04-24T11:08:37;100732.91;;;-0.31;100.00
38289;BME280;24092;53.370;-6.588;2023-04-24T11:11:10;100731.39;;;-0.60;100.00
38289;BME280;24092;53.370;-6.588;2023-04-24T11:14:09;100737.84;;;-0.70;100.00
38289;BME280;24092;53.370;-6.588;2023-04-24T11:16:44;100740.65;;;-0.66;100.00
38289;BME280;24092;53.370;-6.588;2023-04-24T11:19:21;100742.81;;;-0.11;100.00
38289;BME280;24092;53.370;-6.588;2023-04-24T11:21:55;100747.26;;;0.36;100.00
38289;BME280;24092;53.370;-6.588;2023-04-24T11:24:28;100750.75;;;-0.56;100.00
38289;BME280;24092;53.370;-6.588;2023-04-24T11:26:57;100753.60;;;-0.86;100.00
38289;BME280;24092;53.370;-6.588;2023-04-24T11:30:31;100759.25;;;-0.29;100.00
38289;BME280;24092;53.370;-6.588;2023-04-24T11:33:05;100768.50;;;-0.16;100.00
38289;BME280;24092;53.370;-6.588;2023-04-24T11:35:35;100769.40;;;-0.37;100.00
38289;BME280;24092;53.370;-6.588;2023-04-24T11:38:06;100763.23;;;0.83;100.00
38289;BME280;24092;53.370;-6.588;2023-04-24T11:40:33;100762.93;;;1.65;100.00
38289;BME280;24092;53.370;-6.588;2023-04-24T11:43:00;100765.83;;;0.45;100.00
38289;BME280;24092;53.370;-6.588;2023-04-24T11:45:29;100764.96;;;-0.42;100.00
38289;BME280;24092;53.370;-6.588;2023-04-24T11:47:56;100764.31;;;1.69;100.00
38289;BME280;24092;53.370;-6.588;2023-04-24T11:50:26;100764.23;;;0.59;100.00
38289;BME280;24092;53.370;-6.588;2023-04-24T11:52:54;100762.05;;;0.60;100.00
38289;BME280;24092;53.370;-6.588;2023-04-24T11:55:27;100766.62;;;1.02;100.00
38289;BME280;24092;53.370;-6.588;2023-04-24T11:57:56;100773.39;;;0.26;100.00
38289;BME280;24092;53.370;-6.588;2023-04-24T12:00:25;100776.46;;;0.36;100.00
38289;BME280;24092;53.370;-6.588;2023-04-24T12:03:04;100784.10;;;-0.19;100.00
38289;BME280;24092;53.370;-6.588;2023-04-24T12:05:32;100786.07;;;-0.19;100.00
38289;BME280;24092;53.370;-6.588;2023-04-24T12:07:59;100787.38;;;0.34;100.00
38289;BME280;24092;53.370;-6.588;2023-04-24T12:10:29;100786.22;;;0.10;100.00
38289;BME280;24092;53.370;-6.588;2023-04-24T12:12:58;100787.34;;;-0.26;100.00
38289;BME280;24092;53.370;-6.588;2023-04-24T12:15:25;100791.47;;;0.52;100.00
38289;BME280;24092;53.370;-6.588;2023-04-24T12:17:54;100795.92;;;0.14;100.00
38289;BME280;24092;53.370;-6.588;2023-04-24T12:20:25;100804.87;;;-0.07;100.00
38289;BME280;24092;53.370;-6.588;2023-04-24T12:22:53;100803.58;;;0.63;100.00
38289;BME280;24092;53.370;-6.588;2023-04-24T12:25:23;100810.37;;;0.30;100.00
38289;BME280;24092;53.370;-6.588;2023-04-24T12:27:53;100810.78;;;0.14;100.00
38289;BME280;24092;53.370;-6.588;2023-04-24T12:30:26;100814.43;;;0.33;100.00
38289;BME280;24092;53.370;-6.588;2023-04-24T12:32:53;100817.67;;;0.30;100.00
38289;BME280;24092;53.370;-6.588;2023-04-24T12:35:22;100814.28;;;0.81;100.00
38289;BME280;24092;53.370;-6.588;2023-04-24T12:37:49;100815.60;;;0.82;100.00
38289;BME280;24092;53.370;-6.588;2023-04-24T12:40:17;100819.64;;;0.28;100.00